Data for 09/21/2013

Time Sea-Level Adjusted Pressure Absolute Pressure Temperature Relative Humidity Dew Point   
(mb) (inHg) (mb) (inHg) (C) (F) (%) (C) (F)
00:05 1013 29.91 842 24.86 11.4 52.5 30 -5.7 21.8
00:10 1013 29.91 842 24.86 11.5 52.7 28 -6.4 20.4
00:15 1013 29.91 842 24.86 11.9 53.3 29 -5.8 21.6
00:20 1013 29.91 842 24.86 12 53.6 28 -6 21.2
00:25 1013 29.91 842 24.86 11.9 53.4 29 -5.5 22
00:30 1013 29.91 842 24.86 11.7 53.1 29 -5.9 21.4
00:35 1013 29.91 842 24.86 11.7 53 28 -6.1 21.1
00:40 1013 29.91 843 24.89 11.6 52.9 28 -6.1 21
00:45 1013 29.91 843 24.89 11.6 52.9 28 -6.3 20.7
00:50 1013 29.91 843 24.89 11.8 53.2 28 -6.1 21.1
00:55 1013 29.91 843 24.89 11.5 52.7 30 -5.4 22.3
01:00 1013 29.91 843 24.89 11.2 52.2 30 -5.8 21.6
01:05 1013 29.91 843 24.89 11.3 52.3 29 -6.3 20.7
01:10 1013 29.91 843 24.89 10.7 51.3 35 -4.2 24.5
01:15 1013 29.91 843 24.89 10.2 50.3 32 -5.9 21.4
01:20 1013 29.91 843 24.89 10 50.1 39 -3.2 26.2
01:25 1013 29.91 843 24.89 9.9 49.8 34 -5.2 22.6
01:30 1013 29.91 843 24.89 10.2 50.4 35 -4.7 23.5
01:35 1013 29.91 842 24.86 9.7 49.5 33 -5.7 21.7
01:40 1013 29.91 842 24.86 10.5 50.9 32 -5.4 22.2
01:45 1013 29.91 842 24.86 10.4 50.7 32 -5.6 22
01:50 1013 29.91 842 24.86 10.2 50.4 35 -4.4 24.2
01:55 1013 29.91 842 24.86 9.7 49.5 36 -4.7 23.5
02:00 1013 29.91 842 24.86 9.4 49 39 -3.9 25
02:05 1013 29.91 842 24.86 8.9 48 39 -4.3 24.2
02:10 1013 29.91 842 24.86 8.9 48 36 -5.5 22.1
02:15 1013 29.91 842 24.86 9.5 49.2 36 -4.7 23.5
02:20 1013 29.91 842 24.86 9.4 49 37 -4.7 23.6
02:25 1013 29.91 842 24.86 9.5 49.2 37 -4.4 24
02:30 1013 29.91 842 24.86 9.6 49.3 36 -4.7 23.6
02:35 1013 29.91 842 24.86 9.5 49.1 38 -4.2 24.4
02:40 1013 29.91 842 24.86 9.6 49.4 36 -4.7 23.6
02:45 1013 29.91 842 24.86 9.6 49.2 35 -5.1 22.7
02:50 1013 29.91 842 24.86 10.2 50.4 34 -5 23
02:55 1013 29.91 842 24.86 10.1 50.2 34 -5 22.9
03:00 1013 29.91 842 24.86 10.4 50.7 33 -5 23.1
03:05 1013 29.91 842 24.86 10.5 50.8 34 -4.8 23.3
03:10 1013 29.91 842 24.86 10.8 51.5 32 -5.2 22.7
03:15 1013 29.91 842 24.86 11.1 52 31 -5.5 22.1
03:20 1013 29.91 842 24.86 11.4 52.6 30 -5.4 22.3
03:25 1012 29.88 842 24.86 11.6 52.9 30 -5.5 22
03:30 1012 29.88 842 24.86 11.7 53 30 -5.2 22.7
03:35 1012 29.88 842 24.86 11.4 52.5 32 -4.7 23.5
03:40 1012 29.88 842 24.86 11.3 52.3 32 -4.9 23.2
03:45 1012 29.88 842 24.86 11.4 52.5 31 -5.2 22.6
03:50 1012 29.88 842 24.86 11.5 52.8 32 -4.7 23.5
03:55 1012 29.88 842 24.86 11.3 52.3 32 -4.8 23.3
04:00 1012 29.88 842 24.86 11.2 52.1 32 -5 22.9
04:05 1012 29.88 841 24.83 11.4 52.6 31 -4.9 23.2
04:10 1012 29.88 841 24.83 11.5 52.7 32 -4.8 23.4
04:15 1012 29.88 841 24.83 11.7 53.1 31 -4.9 23.2
04:20 1012 29.88 841 24.83 11.9 53.5 30 -5.2 22.7
04:25 1012 29.88 841 24.83 12.1 53.8 30 -5 22.9
04:30 1012 29.88 841 24.83 12 53.6 30 -4.8 23.4
04:35 1012 29.88 841 24.83 12 53.6 30 -4.9 23.2
04:40 1012 29.88 841 24.83 12.2 54 30 -4.9 23.2
04:45 1012 29.88 841 24.83 12.3 54.1 30 -5 23.1
04:50 1012 29.88 841 24.83 12.5 54.4 30 -4.6 23.7
04:55 1012 29.88 841 24.83 12.3 54.1 31 -4.3 24.2
05:00 1012 29.88 841 24.83 11.9 53.4 31 -4.6 23.8
05:05 1012 29.88 841 24.83 11.9 53.4 33 -4 24.8
05:10 1012 29.88 841 24.83 11.6 52.9 33 -4 24.9
05:15 1012 29.88 841 24.83 11.5 52.7 34 -4 24.9
05:20 1012 29.88 841 24.83 11.5 52.8 32 -4.4 24.2
05:25 1012 29.88 841 24.83 12 53.5 32 -4.2 24.5
05:30 1012 29.88 841 24.83 12.2 54 33 -3.7 25.3
05:35 1012 29.88 841 24.83 12.2 53.9 32 -3.9 25
05:40 1012 29.88 841 24.83 12.2 53.9 32 -4.1 24.7
05:45 1012 29.88 841 24.83 12.3 54.1 31 -4.2 24.5
05:50 1011 29.85 841 24.83 12.4 54.3 33 -3.6 25.6
05:55 1011 29.85 841 24.83 12.2 53.9 33 -3.7 25.4
06:00 1011 29.85 841 24.83 12.2 53.9 33 -3.4 25.9
06:05 1011 29.85 841 24.83 12.2 54 32 -3.8 25.1
06:10 1011 29.85 841 24.83 12.1 53.7 38 -1.9 28.5
06:15 1011 29.85 841 24.83 11.1 52 38 -2.5 27.6
06:20 1011 29.85 841 24.83 11.4 52.6 34 -3.9 24.9
06:25 1011 29.85 841 24.83 12.1 53.8 33 -3.7 25.4
06:30 1011 29.85 841 24.83 12.5 54.4 33 -3.4 26
06:35 1011 29.85 841 24.83 12.6 54.6 32 -3.7 25.3
06:40 1011 29.85 841 24.83 12.9 55.3 33 -2.9 26.8
06:45 1011 29.85 841 24.83 12.6 54.7 35 -2.3 27.8
06:50 1011 29.85 841 24.83 12.5 54.5 35 -2.5 27.6
06:55 1011 29.85 841 24.83 12.8 55 35 -2.4 27.6
07:00 1011 29.85 841 24.83 12.8 55.1 34 -2.5 27.5
07:05 1011 29.85 841 24.83 13.2 55.7 33 -2.5 27.5
07:10 1011 29.85 840 24.81 13.6 56.5 33 -2.2 28
07:15 1011 29.85 840 24.81 13.9 57 33 -2.1 28.3
07:20 1011 29.85 841 24.83 14.5 58.1 32 -2.1 28.2
07:25 1011 29.85 841 24.83 14.7 58.4 33 -1.3 29.7
07:30 1011 29.85 841 24.83 14.6 58.3 32 -1.6 29
07:35 1011 29.85 840 24.81 14.8 58.7 33 -1.3 29.6
07:40 1011 29.85 841 24.83 15 59.1 32 -1.4 29.5
07:45 1011 29.85 840 24.81 15.2 59.3 33 -0.9 30.5
07:50 1011 29.85 840 24.81 15.2 59.4 33 -0.8 30.5
07:55 1011 29.85 840 24.81 15.4 59.7 34 -0.3 31.5
08:00 1011 29.85 840 24.81 15.6 60 34 -0.2 31.6
08:05 1011 29.85 840 24.81 15.6 60 34 -0.2 31.7
08:10 1011 29.85 840 24.81 16 60.8 32 -0.5 31.2
08:15 1011 29.85 840 24.81 16.6 61.9 31 -0.5 31
08:20 1011 29.85 840 24.81 16.9 62.5 30 -0.5 31
08:25 1011 29.85 840 24.81 17.1 62.8 32 0.5 32.9
08:30 1011 29.85 840 24.81 17.6 63.7 30 0.1 32.2
08:35 1011 29.85 840 24.81 18 64.4 30 0.5 32.9
08:40 1011 29.85 840 24.81 18.4 65.2 30 0.5 32.9
08:45 1011 29.85 840 24.81 18.8 65.9 29 0.7 33.3
08:50 1011 29.85 840 24.81 19.2 66.5 30 1.2 34.1
08:55 1011 29.85 840 24.81 19.8 67.6 28 0.9 33.5
09:00 1011 29.85 840 24.81 19.8 67.6 28 0.7 33.2
09:05 1011 29.85 840 24.81 20.4 68.6 27 0.8 33.4
09:10 1011 29.85 840 24.81 20.8 69.4 26 1 33.8
09:15 1011 29.85 840 24.81 21.3 70.3 24 0.1 32.2
09:20 1011 29.85 840 24.81 21.6 70.8 24 0.6 33.1
09:25 1011 29.85 840 24.81 22.1 71.7 23 0.3 32.6
09:30 1011 29.85 840 24.81 22.5 72.4 23 0.4 32.7
09:35 1010 29.83 840 24.81 22.8 73 23 0.6 33.1
09:40 1010 29.83 840 24.81 23.1 73.5 21 -0.2 31.7
09:45 1010 29.83 840 24.81 23.4 74 26 2.8 37.1
09:50 1010 29.83 840 24.81 23.2 73.8 26 3.1 37.6
09:55 1010 29.83 840 24.81 22.9 73.3 27 3.2 37.7
10:00 1010 29.83 840 24.81 23.1 73.5 28 3.6 38.5
10:05 1010 29.83 839 24.78 22.4 72.3 29 3.8 38.9
10:10 1010 29.83 839 24.78 22.4 72.4 27 2.9 37.2
10:15 1010 29.83 839 24.78 21.9 71.4 28 2.6 36.6
10:20 1010 29.83 839 24.78 21.4 70.5 29 2.7 36.8
10:25 1010 29.83 839 24.78 21.8 71.3 29 3 37.3
10:30 1010 29.83 839 24.78 21.8 71.3 28 2.8 37.1
10:35 1010 29.83 839 24.78 22.9 73.3 26 2.7 36.9
10:40 1010 29.83 839 24.78 23.9 75 24 2.3 36.1
10:45 1010 29.83 839 24.78 23.7 74.6 23 1.8 35.2
10:50 1010 29.83 839 24.78 23.4 74.1 24 2 35.6
10:55 1010 29.83 839 24.78 24.1 75.4 24 2.2 36
11:00 1010 29.83 839 24.78 24.3 75.8 24 2.9 37.1
11:05 1010 29.83 839 24.78 24.6 76.3 17 -2.1 28.3
11:10 1010 29.83 839 24.78 24.9 76.8 15 -3.3 26.1
11:15 1010 29.83 839 24.78 24.8 76.6 15 -3.1 26.4
11:20 1010 29.83 839 24.78 24.9 76.8 14 -4.6 23.7
11:25 1010 29.83 839 24.78 25 77 14 -4.3 24.2
11:30 1010 29.83 839 24.78 25.3 77.5 14 -4 24.9
11:35 1010 29.83 839 24.78 25.4 77.6 14 -3.9 25
11:40 1010 29.83 839 24.78 25.1 77.3 14 -3.6 25.5
11:45 1010 29.83 839 24.78 24.6 76.3 14 -4 24.9
11:50 1010 29.83 839 24.78 24.8 76.6 14 -4.2 24.5
11:55 1010 29.83 839 24.78 25 77 15 -3.5 25.7
12:00 1010 29.83 839 24.78 25.1 77.2 14 -3.6 25.5
12:05 1010 29.83 839 24.78 25.2 77.3 14 -4.3 24.2
12:10 1010 29.83 839 24.78 25.2 77.3 15 -3.5 25.8
12:15 1010 29.83 839 24.78 25.5 77.9 13 -4.5 23.9
12:20 1010 29.83 839 24.78 25 77.1 15 -3 26.6
12:25 1009 29.8 839 24.78 24.4 76 24 2.8 37
12:30 1009 29.8 839 24.78 23.6 74.5 24 2.2 36
12:35 1009 29.8 839 24.78 23.6 74.5 22 0.7 33.2
12:40 1009 29.8 838 24.75 24 75.3 22 1.4 34.6
12:45 1009 29.8 838 24.75 24.3 75.7 15 -3.6 25.4
12:50 1009 29.8 838 24.75 24.8 76.7 21 1 33.8
12:55 1009 29.8 838 24.75 24.6 76.3 21 1.3 34.3
13:00 1009 29.8 838 24.75 24.7 76.4 21 1 33.9
13:05 1009 29.8 838 24.75 25 77.1 20 0.8 33.4
13:10 1009 29.8 838 24.75 25 76.9 15 -3 26.6
13:15 1009 29.8 838 24.75 25.2 77.4 14 -3.9 25
13:20 1009 29.8 838 24.75 25.6 78 14 -3.4 25.8
13:25 1009 29.8 838 24.75 25.5 78 15 -3 26.6
13:30 1009 29.8 838 24.75 25.8 78.4 14 -3.2 26.3
13:35 1009 29.8 838 24.75 25.7 78.3 13 -4.1 24.5
13:40 1009 29.8 838 24.75 25.6 78.1 14 -3.7 25.4
13:45 1009 29.8 838 24.75 25.8 78.4 13 -4.1 24.7
13:50 1009 29.8 838 24.75 25.7 78.2 13 -4.5 24
13:55 1008 29.77 838 24.75 25.9 78.6 13 -4.3 24.3
14:00 1008 29.77 838 24.75 25.7 78.2 13 -4.1 24.6
14:05 1008 29.77 838 24.75 25.9 78.5 14 -3.6 25.5
14:10 1008 29.77 838 24.75 25.8 78.5 14 -3.4 25.9
14:15 1008 29.77 837 24.72 25.5 77.8 14 -4 24.9
14:20 1008 29.77 837 24.72 25.6 78.1 14 -3.7 25.3
14:25 1008 29.77 837 24.72 25.5 77.9 14 -3.9 24.9
14:30 1008 29.77 837 24.72 25.1 77.1 14 -4.1 24.6
14:35 1008 29.77 837 24.72 24.8 76.6 15 -3.7 25.4
14:40 1008 29.77 837 24.72 24.7 76.4 14 -4.5 23.9
14:45 1008 29.77 837 24.72 25 77 13 -4.6 23.7
14:50 1008 29.77 837 24.72 25.2 77.4 14 -4.3 24.3
14:55 1008 29.77 837 24.72 25.1 77.2 14 -4.4 24
15:00 1008 29.77 837 24.72 25.1 77.2 14 -4.4 24
15:05 1008 29.77 837 24.72 24.9 76.8 14 -4.6 23.7
15:10 1008 29.77 837 24.72 24.7 76.4 14 -4.4 24
15:15 1008 29.77 837 24.72 24.6 76.2 15 -4 24.9
15:20 1008 29.77 837 24.72 24.5 76.1 14 -4.2 24.4
15:25 1008 29.77 837 24.72 24.4 76 14 -4.5 23.8
15:30 1008 29.77 837 24.72 24.5 76 14 -4.5 23.9
15:35 1008 29.77 837 24.72 24.4 75.9 14 -4.6 23.7
15:40 1008 29.77 837 24.72 24.3 75.8 14 -4.9 23.3
15:45 1008 29.77 837 24.72 24.2 75.6 15 -4 24.9
15:50 1008 29.77 837 24.72 24 75.1 15 -3.8 25.1
15:55 1007 29.74 837 24.72 24 75.1 14 -4.6 23.7
16:00 1007 29.74 837 24.72 24 75.1 14 -4.7 23.5
16:05 1007 29.74 837 24.72 24 75.1 14 -4.5 23.9
16:10 1007 29.74 837 24.72 23.8 74.8 15 -4.1 24.6
16:15 1007 29.74 837 24.72 23.7 74.6 15 -4.3 24.2
16:20 1007 29.74 837 24.72 23.7 74.6 16 -3.5 25.6
16:25 1007 29.74 836 24.69 23.6 74.6 16 -3.8 25.2
16:30 1007 29.74 836 24.69 23.7 74.6 15 -4.7 23.5
16:35 1007 29.74 836 24.69 24 75.1 14 -4.9 23.1
16:40 1007 29.74 836 24.69 23.9 74.9 15 -4.3 24.2
16:45 1007 29.74 836 24.69 23.7 74.7 15 -4.2 24.5
16:50 1007 29.74 836 24.69 23.7 74.7 15 -4.2 24.4
16:55 1007 29.74 836 24.69 23.7 74.6 15 -4 24.8
17:00 1007 29.74 836 24.69 23.7 74.7 15 -4.3 24.3
17:05 1007 29.74 836 24.69 23.8 74.9 15 -4.5 23.9
17:10 1007 29.74 836 24.69 23.8 74.8 15 -4.6 23.7
17:15 1007 29.74 836 24.69 23.6 74.5 15 -4.2 24.4
17:20 1007 29.74 836 24.69 23.6 74.6 15 -4.3 24.2
17:25 1007 29.74 836 24.69 23.7 74.6 14 -4.9 23.2
17:30 1007 29.74 836 24.69 23.6 74.5 15 -4 24.7
17:35 1007 29.74 836 24.69 23.4 74.1 15 -4.3 24.3
17:40 1007 29.74 837 24.72 23.3 74 16 -4.1 24.6
17:45 1007 29.74 837 24.72 23.1 73.6 16 -3.5 25.7
17:50 1007 29.74 837 24.72 22.9 73.2 17 -3.2 26.2
17:55 1007 29.74 837 24.72 22.8 73.1 17 -3.1 26.4
18:00 1007 29.74 837 24.72 22.9 73.1 17 -3 26.5
18:05 1007 29.74 837 24.72 22.5 72.6 18 -2.9 26.8
18:10 1007 29.74 837 24.72 22.2 71.9 19 -2.4 27.6
18:15 1007 29.74 837 24.72 22.1 71.9 18 -3.1 26.4
18:20 1007 29.74 837 24.72 22.2 72 19 -2.4 27.6
18:25 1007 29.74 837 24.72 21.8 71.2 20 -2.1 28.3
18:30 1007 29.74 837 24.72 21.3 70.3 20 -2.6 27.3
18:35 1007 29.74 837 24.72 21.5 70.6 19 -2.7 27.1
18:40 1007 29.74 837 24.72 21.4 70.5 20 -2.4 27.7
18:45 1007 29.74 837 24.72 21.2 70.2 22 -1.2 29.8
18:50 1007 29.74 837 24.72 21.1 70 24 0.1 32.2
18:55 1007 29.74 837 24.72 20.9 69.5 21 -2 28.4
19:00 1008 29.77 837 24.72 21 69.8 20 -2.6 27.3
19:05 1008 29.77 837 24.72 21.1 69.9 20 -2.5 27.6
19:10 1008 29.77 837 24.72 21.2 70.2 20 -2.3 27.9
19:15 1008 29.77 837 24.72 20.8 69.5 21 -1.8 28.7
19:20 1008 29.77 837 24.72 20.2 68.4 23 -1.2 29.8
19:25 1008 29.77 837 24.72 19.9 67.8 22 -2 28.4
19:30 1008 29.77 837 24.72 20 68 23 -1.5 29.3
19:35 1008 29.77 837 24.72 20 68.1 22 -2.1 28.3
19:40 1008 29.77 837 24.72 20.1 68.2 25 -0.4 31.2
19:45 1008 29.77 837 24.72 19.5 67.1 25 -1.2 29.9
19:50 1008 29.77 837 24.72 19.5 67.1 23 -1.8 28.7
19:55 1008 29.77 837 24.72 19.4 66.9 27 0.3 32.5
20:00 1008 29.77 837 24.72 18.8 65.8 29 0.3 32.5
20:05 1008 29.77 837 24.72 18.1 64.6 30 0.2 32.4
20:10 1008 29.77 837 24.72 18.2 64.7 25 -2.3 27.9
20:15 1008 29.77 837 24.72 18.7 65.6 28 -0.1 31.8
20:20 1008 29.77 837 24.72 18.1 64.7 29 -0.1 31.8
20:25 1008 29.77 837 24.72 17.7 63.9 28 -1.1 30
20:30 1007 29.74 837 24.72 18.4 65.1 25 -1.6 29.1
20:35 1007 29.74 837 24.72 18.4 65 28 -0.2 31.6
20:40 1007 29.74 837 24.72 18.1 64.6 29 -0 31.9
20:45 1007 29.74 837 24.72 17.4 63.2 31 0.2 32.3
20:50 1007 29.74 837 24.72 16.8 62.2 32 -0 31.9
20:55 1007 29.74 836 24.69 16.9 62.3 31 -0.3 31.5
21:00 1007 29.74 836 24.69 16.7 62.1 32 -0.1 31.8
21:05 1007 29.74 836 24.69 16.8 62.2 30 -0.9 30.4
21:10 1007 29.74 836 24.69 16.8 62.3 31 -0.4 31.3
21:15 1007 29.74 836 24.69 16.7 62 31 -0.6 31
21:20 1007 29.74 836 24.69 16.6 61.8 31 -0.4 31.2
21:25 1007 29.74 836 24.69 16.4 61.4 31 -0.6 30.9
21:30 1007 29.74 836 24.69 16.3 61.3 31 -0.6 31
21:35 1007 29.74 836 24.69 16.3 61.3 31 -0.7 30.7
21:40 1007 29.74 836 24.69 16.3 61.3 33 -0.1 31.8
21:45 1007 29.74 836 24.69 15.9 60.7 32 -0.4 31.2
21:50 1007 29.74 836 24.69 16.1 60.9 32 -0.4 31.4
21:55 1007 29.74 836 24.69 15.9 60.7 33 -0.3 31.5
22:00 1007 29.74 836 24.69 15.7 60.3 33 -0.4 31.2
22:05 1007 29.74 836 24.69 15.7 60.2 33 -0.4 31.3
22:10 1007 29.74 836 24.69 15.6 60.1 33 -0.4 31.3
22:15 1007 29.74 836 24.69 15.8 60.4 33 -0.4 31.2
22:20 1007 29.74 836 24.69 15.9 60.5 34 0.1 32.2
22:25 1007 29.74 836 24.69 15.7 60.3 33 -0.5 31.1
22:30 1007 29.74 836 24.69 16.1 60.9 31 -0.8 30.5
22:35 1007 29.74 836 24.69 16.2 61.1 33 -0.1 31.8
22:40 1007 29.74 836 24.69 15.7 60.3 34 -0 31.9
22:45 1007 29.74 836 24.69 15.4 59.7 34 -0.3 31.5
22:50 1007 29.74 836 24.69 15.4 59.8 33 -0.6 31
22:55 1007 29.74 836 24.69 15.7 60.2 33 -0.7 30.8
23:00 1007 29.74 836 24.69 16 60.8 32 -0.6 30.9
23:05 1007 29.74 836 24.69 15.9 60.6 32 -0.7 30.7
23:10 1007 29.74 836 24.69 16.1 60.9 32 -0.6 31
23:15 1007 29.74 836 24.69 16 60.7 32 -0.5 31
23:20 1007 29.74 836 24.69 15.8 60.4 34 -0.1 31.8
23:25 1007 29.74 836 24.69 15.7 60.3 33 -0.6 30.9
23:30 1006 29.71 836 24.69 15.7 60.2 33 -0.5 31.1
23:35 1006 29.71 836 24.69 15.6 60.1 33 -0.7 30.8
23:40 1006 29.71 836 24.69 15.6 60.1 33 -0.5 31.1
23:45 1006 29.71 836 24.69 15.7 60.2 33 -0.6 30.9
23:50 1006 29.71 836 24.69 15.6 60.2 33 -0.4 31.2
23:55 1007 29.74 836 24.69 15.5 59.9 33 -0.7 30.8
24:00 1007 29.74 836 24.69 15.4 59.7 35 0.1 32.1